Time;durP1;ratioP1;P1;durP2;ratioP2;P2;SDS_P1;SDS_P2;PMS_P1;PMS_P2;Temp;Humidity;BMP_temperature;BMP_pressure;BME280_temperature;BME280_humidity;BME280_pressure;Samples;Min_cycle;Max_cycle;Signal;HPM_P1;HPM_P2
2022/05/12 00:00:01;;;;;;;;;4.00;2.25;;;;;20.37;49.99;101055.00;5018140;28;45366;-52
2022/05/12 00:02:27;;;;;;;;;2.75;2.75;;;;;20.37;50.08;101070.84;5018201;28;47042;-52
2022/05/12 00:04:52;;;;;;;;;3.25;2.50;;;;;20.25;50.63;101071.09;5017985;28;45365;-52
2022/05/12 00:07:18;;;;;;;;;6.25;3.75;;;;;20.25;50.62;101066.34;5018342;28;45397;-50
2022/05/12 00:09:44;;;;;;;;;2.60;2.60;;;;;20.23;50.75;101062.16;5018624;28;45296;-51
2022/05/12 00:12:10;;;;;;;;;3.50;3.50;;;;;20.14;50.89;101061.81;5017835;28;47255;-50
2022/05/12 00:14:35;;;;;;;;;2.25;2.25;;;;;20.13;50.95;101072.13;5017385;28;45228;-54
2022/05/12 00:17:01;;;;;;;;;4.00;4.00;;;;;20.10;51.12;101069.88;5017814;28;45212;-53
2022/05/12 00:19:27;;;;;;;;;5.50;3.75;;;;;20.06;51.28;101065.13;5018586;28;45214;-49
2022/05/12 00:21:53;;;;;;;;;2.20;2.20;;;;;20.08;51.12;101079.63;5017726;28;45226;-49
2022/05/12 00:24:19;;;;;;;;;6.20;3.00;;;;;20.02;51.10;101082.34;5030231;28;45453;-51
2022/05/12 00:26:45;;;;;;;;;2.25;2.00;;;;;19.99;50.98;101079.28;5038116;28;45462;-53
2022/05/12 00:29:10;;;;;;;;;3.00;2.50;;;;;20.00;50.94;101076.22;5037931;28;45429;-55
2022/05/12 00:31:37;;;;;;;;;2.50;2.00;;;;;19.95;51.01;101081.75;5038061;28;46112;-50
2022/05/12 00:34:03;;;;;;;;;5.20;3.80;;;;;19.77;51.04;101063.50;5037408;28;45480;-54
2022/05/12 00:36:29;;;;;;;;;8.60;3.40;;;;;19.85;50.96;101093.63;5037919;28;45358;-50
2022/05/12 00:38:55;;;;;;;;;4.75;4.75;;;;;19.62;51.06;101059.47;5037926;28;45442;-53
2022/05/12 00:41:20;;;;;;;;;5.00;3.00;;;;;19.66;51.21;101067.28;5036956;28;45392;-50
2022/05/12 00:43:52;;;;;;;;;2.00;2.00;;;;;19.74;50.74;101097.44;5035909;28;45738;-51
2022/05/12 00:46:23;;;;;;;;;4.00;3.40;;;;;19.54;51.38;101067.47;5037554;28;45503;-55
2022/05/12 00:48:49;;;;;;;;;5.40;4.80;;;;;19.72;51.33;101097.72;5038161;28;45321;-50
2022/05/12 00:51:19;;;;;;;;;4.20;4.00;;;;;19.77;51.27;101099.69;5037105;28;46294;-55
2022/05/12 00:53:45;;;;;;;;;3.00;3.00;;;;;19.75;51.07;101101.91;5036260;28;45532;-54
2022/05/12 00:56:12;;;;;;;;;3.25;3.25;;;;;19.81;51.15;101105.56;5036191;28;45338;-48
2022/05/12 00:58:37;;;;;;;;;2.40;2.40;;;;;19.82;50.95;101113.66;5037719;28;45418;-50
2022/05/12 01:01:04;;;;;;;;;2.50;2.50;;;;;19.75;50.72;101119.44;5037025;28;45772;-51
2022/05/12 01:03:30;;;;;;;;;4.80;2.80;;;;;19.68;50.99;101118.81;5035505;28;45338;-51
2022/05/12 01:05:55;;;;;;;;;3.00;3.00;;;;;19.54;51.57;101121.22;5037324;28;45216;-55
2022/05/12 01:08:21;;;;;;;;;6.50;4.00;;;;;19.33;51.12;101079.25;5018741;28;45322;-53
2022/05/12 01:10:50;;;;;;;;;3.25;3.00;;;;;19.57;51.03;101112.31;5052130;28;45972;-54
2022/05/12 01:13:16;;;;;;;;;3.80;3.80;;;;;19.53;51.27;101113.13;5056900;28;45349;-51
2022/05/12 01:15:51;;;;;;;;;5.60;5.60;;;;;19.49;51.54;101118.38;5055940;28;45415;-49
2022/05/12 01:18:17;;;;;;;;;2.80;2.40;;;;;19.47;51.24;101112.22;5057501;28;45403;-54
2022/05/12 01:20:44;;;;;;;;;4.50;4.25;;;;;19.40;51.38;101106.00;5056905;28;46422;-52
2022/05/12 01:23:20;;;;;;;;;3.20;2.80;;;;;19.57;51.10;101123.47;5055860;28;45334;-51
2022/05/12 01:25:46;;;;;;;;;4.60;3.60;;;;;19.55;50.99;101119.25;5036330;28;45393;-52
2022/05/12 01:28:11;;;;;;;;;3.25;3.00;;;;;19.47;51.16;101110.28;5036572;28;45799;-53
2022/05/12 01:30:37;;;;;;;;;4.00;4.00;;;;;19.60;50.88;101136.88;5036518;28;45875;-53
2022/05/12 01:33:04;;;;;;;;;4.25;3.75;;;;;19.47;51.49;101117.78;5036707;28;45469;-55
2022/05/12 01:35:32;;;;;;;;;5.00;4.00;;;;;19.53;51.35;101129.81;5035644;28;45365;-55
2022/05/12 01:37:58;;;;;;;;;6.40;2.20;;;;;19.50;51.50;101132.03;5036721;28;45257;-52
2022/05/12 01:40:24;;;;;;;;;6.00;3.75;;;;;19.37;51.93;101138.00;5036626;28;45206;-53
2022/05/12 01:42:49;;;;;;;;;3.25;2.50;;;;;19.30;52.15;101140.13;5036205;28;45331;-53
2022/05/12 01:45:15;;;;;;;;;4.00;3.00;;;;;19.26;52.24;101134.25;5036589;28;45464;-49
2022/05/12 01:47:41;;;;;;;;;5.00;4.50;;;;;19.28;52.37;101145.13;5035311;28;45513;-51
2022/05/12 01:50:07;;;;;;;;;3.25;3.25;;;;;19.17;52.32;101149.75;5036276;28;45651;-50
2022/05/12 01:52:32;;;;;;;;;4.40;3.40;;;;;19.16;52.46;101148.06;5036205;28;45349;-53
2022/05/12 01:54:58;;;;;;;;;3.75;2.75;;;;;19.14;52.36;101155.81;5036385;28;45414;-49
2022/05/12 01:57:23;;;;;;;;;2.00;2.00;;;;;19.04;52.00;101151.81;5036847;28;45396;-47
2022/05/12 01:59:49;;;;;;;;;3.75;3.75;;;;;19.14;52.30;101158.59;5035844;28;46342;-51
2022/05/12 02:02:15;;;;;;;;;3.00;3.00;;;;;19.12;51.94;101171.94;5036526;28;45322;-52
2022/05/12 02:04:41;;;;;;;;;3.00;3.00;;;;;19.11;51.70;101165.53;5036730;28;45391;-55
2022/05/12 02:07:07;;;;;;;;;3.25;2.00;;;;;19.14;51.83;101169.72;5036523;28;45525;-50
2022/05/12 02:09:32;;;;;;;;;6.25;4.00;;;;;18.88;51.46;101139.63;5036466;28;46797;-53
2022/05/12 02:11:58;;;;;;;;;6.80;4.20;;;;;19.04;51.05;101176.84;5036117;28;45157;-51
2022/05/12 02:14:24;;;;;;;;;2.50;0.50;;;;;18.96;51.05;101175.31;5036348;28;45413;-49
2022/05/12 02:16:49;;;;;;;;;2.00;2.00;;;;;18.93;50.96;101181.41;5036997;28;45261;-51
2022/05/12 02:19:15;;;;;;;;;3.25;3.25;;;;;18.91;51.08;101189.19;5035728;28;46242;-53
2022/05/12 02:21:40;;;;;;;;;3.25;3.25;;;;;18.86;50.96;101180.78;5035329;28;45421;-50
2022/05/12 02:24:06;;;;;;;;;3.00;3.00;;;;;18.81;50.80;101181.53;5035847;28;45339;-53
2022/05/12 02:26:32;;;;;;;;;3.00;3.00;;;;;18.58;50.85;101163.16;5036635;28;45447;-52
2022/05/12 02:28:58;;;;;;;;;6.00;3.00;;;;;18.78;50.47;101195.94;5035875;28;45456;-49
2022/05/12 02:31:23;;;;;;;;;4.50;3.00;;;;;18.59;49.99;101181.50;5034747;28;45510;-56
2022/05/12 02:33:49;;;;;;;;;2.75;2.00;;;;;18.75;49.35;101196.47;5036473;28;45753;-51
2022/05/12 02:36:14;;;;;;;;;4.00;2.00;;;;;18.56;49.15;101165.31;5035923;28;45531;-54
2022/05/12 02:38:43;;;;;;;;;3.00;3.00;;;;;18.87;48.50;101203.84;5035602;28;46477;-49
2022/05/12 02:41:09;;;;;;;;;3.60;2.60;;;;;18.85;48.08;101206.03;5034562;28;45248;-52
2022/05/12 02:43:34;;;;;;;;;3.00;3.00;;;;;18.74;47.74;101180.03;5035946;28;45379;-52
2022/05/12 02:46:02;;;;;;;;;2.25;1.50;;;;;18.73;47.18;101187.53;5035201;28;45417;-48
2022/05/12 02:48:35;;;;;;;;;1.80;1.40;;;;;18.87;47.23;101199.13;5017850;28;46833;-49
2022/05/12 02:51:01;;;;;;;;;2.20;2.00;;;;;18.86;46.92;101205.78;5034710;28;45373;-51
2022/05/12 02:53:27;;;;;;;;;2.00;1.00;;;;;18.85;47.34;101214.38;5035671;28;45385;-52
2022/05/12 02:55:52;;;;;;;;;4.80;3.00;;;;;18.76;48.09;101203.72;5014324;28;45659;-51
2022/05/12 02:58:19;;;;;;;;;1.00;1.00;;;;;18.63;48.53;101210.47;5033411;28;47555;-52
2022/05/12 03:00:46;;;;;;;;;2.60;2.60;;;;;18.38;48.54;101172.00;5031223;28;45363;-53
2022/05/12 03:03:12;;;;;;;;;5.00;1.20;;;;;18.65;48.39;101210.22;5032835;28;45296;-53
2022/05/12 03:05:37;;;;;;;;;3.00;2.00;;;;;18.61;48.66;101229.34;5033630;28;45624;-52
2022/05/12 03:08:03;;;;;;;;;1.00;1.00;;;;;18.53;49.15;101230.59;5035243;28;45346;-50
2022/05/12 03:10:29;;;;;;;;;5.40;2.60;;;;;18.56;48.97;101232.88;5035367;28;45382;-50
2022/05/12 03:12:54;;;;;;;;;2.00;2.00;;;;;18.58;48.90;101229.00;5035271;28;45446;-48
2022/05/12 03:15:20;;;;;;;;;2.25;2.00;;;;;18.60;49.22;101227.66;5035458;28;45533;-52
2022/05/12 03:17:45;;;;;;;;;2.00;2.00;;;;;18.53;48.91;101222.25;5035149;28;46688;-53
2022/05/12 03:20:17;;;;;;;;;2.75;2.75;;;;;18.11;49.54;101179.09;5034910;28;45311;-51
2022/05/12 03:22:43;;;;;;;;;1.80;1.60;;;;;18.40;49.36;101226.25;5032804;28;45473;-51
2022/05/12 03:25:10;;;;;;;;;0.75;0.75;;;;;18.44;49.30;101234.91;5035084;28;45441;-51
2022/05/12 03:27:35;;;;;;;;;1.00;1.00;;;;;18.41;49.05;101239.03;5034610;28;46317;-48
2022/05/12 03:30:02;;;;;;;;;0.25;0.25;;;;;18.42;48.96;101235.16;5035014;28;45387;-50
2022/05/12 03:32:27;;;;;;;;;2.40;1.20;;;;;18.46;48.54;101243.00;5033818;28;45358;-48
2022/05/12 03:34:53;;;;;;;;;1.75;1.75;;;;;18.39;48.63;101232.03;5035151;28;45422;-53
2022/05/12 03:37:18;;;;;;;;;1.00;1.00;;;;;18.40;48.47;101240.13;5035219;28;46305;-56
2022/05/12 03:39:44;;;;;;;;;0.75;0.25;;;;;18.38;48.49;101244.25;5034657;28;45496;-52
2022/05/12 03:42:12;;;;;;;;;3.00;1.75;;;;;18.33;48.69;101235.81;5034204;28;45402;-53
2022/05/12 03:44:47;;;;;;;;;1.80;0.80;;;;;18.33;48.54;101246.94;5034857;28;45145;-51
2022/05/12 03:47:14;;;;;;;;;1.20;1.20;;;;;18.33;48.79;101242.25;5034335;28;46021;-56
2022/05/12 03:49:41;;;;;;;;;2.00;1.00;;;;;18.27;48.92;101237.69;5035207;28;45405;-51
2022/05/12 03:52:06;;;;;;;;;2.60;2.40;;;;;18.06;49.62;101240.13;5038704;28;45505;-52
2022/05/12 03:54:32;;;;;;;;;3.25;1.75;;;;;18.10;49.62;101243.22;5038271;28;45457;-52
2022/05/12 03:56:58;;;;;;;;;1.00;1.00;;;;;18.15;49.49;101237.78;5037005;28;45447;-54
2022/05/12 03:59:23;;;;;;;;;2.25;2.00;;;;;18.20;49.41;101240.63;5027082;28;45392;-53
2022/05/12 04:01:48;;;;;;;;;2.25;1.00;;;;;18.16;49.58;101239.47;5036644;28;45422;-53
2022/05/12 04:04:14;;;;;;;;;3.50;2.00;;;;;18.19;49.26;101244.50;5036893;28;45596;-48
2022/05/12 04:06:40;;;;;;;;;2.25;2.00;;;;;18.12;49.63;101243.81;5037901;28;46321;-54
2022/05/12 04:09:06;;;;;;;;;1.60;1.20;;;;;17.92;49.55;101222.06;5037820;28;45340;-51
2022/05/12 04:11:31;;;;;;;;;1.75;1.00;;;;;18.09;49.58;101247.13;5037097;28;45259;-52
2022/05/12 04:13:57;;;;;;;;;2.00;2.00;;;;;18.03;49.78;101254.47;5038213;28;45177;-51
2022/05/12 04:16:23;;;;;;;;;2.75;2.25;;;;;17.98;49.96;101258.00;5037664;28;46712;-52
2022/05/12 04:18:48;;;;;;;;;1.60;1.00;;;;;17.92;50.16;101266.50;5037714;28;45235;-52
2022/05/12 04:21:16;;;;;;;;;3.25;1.75;;;;;17.91;50.28;101271.19;5020010;28;45243;-49
2022/05/12 04:23:43;;;;;;;;;1.40;1.40;;;;;17.90;50.47;101261.19;5036922;28;46222;-52
2022/05/12 04:26:09;;;;;;;;;1.40;1.40;;;;;17.88;50.78;101274.47;5037917;28;46437;-54
2022/05/12 04:28:35;;;;;;;;;5.00;2.00;;;;;17.83;50.91;101271.59;5037771;28;45295;-49
2022/05/12 04:31:01;;;;;;;;;3.50;1.25;;;;;17.78;50.95;101266.78;5037601;28;45424;-50
2022/05/12 04:36:10;;;;;;;;;1.80;1.80;;;;;17.46;51.19;101250.63;5037179;28;45441;-50
2022/05/12 04:38:36;;;;;;;;;2.75;2.00;;;;;17.51;51.03;101255.41;5037851;28;45397;-50
2022/05/12 04:41:01;;;;;;;;;0.00;0.00;;;;;17.72;51.21;101290.00;5037956;28;45365;-50
2022/05/12 04:43:27;;;;;;;;;4.00;3.00;;;;;17.60;51.45;101260.34;5038125;28;45426;-52
2022/05/12 04:45:52;;;;;;;;;2.75;1.00;;;;;17.72;51.32;101285.25;5036920;28;45533;-52
2022/05/12 04:48:18;;;;;;;;;3.00;3.00;;;;;17.74;51.38;101276.69;5036346;28;45338;-54
2022/05/12 04:50:44;;;;;;;;;2.50;1.50;;;;;17.81;50.92;101274.59;5037456;28;45192;-48
2022/05/12 04:53:09;;;;;;;;;2.75;2.25;;;;;17.80;51.05;101286.81;5037740;28;45194;-51
2022/05/12 04:55:35;;;;;;;;;4.75;4.00;;;;;17.72;51.04;101268.59;5036027;28;46336;-55
2022/05/12 04:58:01;;;;;;;;;3.50;3.00;;;;;17.84;51.01;101293.56;5069640;28;45377;-51
2022/05/12 05:00:29;;;;;;;;;1.00;1.00;;;;;17.84;51.03;101292.72;5036974;28;45433;-49
2022/05/12 05:02:55;;;;;;;;;3.60;2.60;;;;;17.78;51.13;101293.69;5037687;28;45532;-54
2022/05/12 05:05:20;;;;;;;;;3.60;2.60;;;;;17.85;51.11;101298.03;5036786;28;45574;-48
2022/05/12 05:07:46;;;;;;;;;2.00;2.00;;;;;17.82;51.05;101300.44;5037367;28;45231;-51
2022/05/12 05:10:12;;;;;;;;;2.00;2.00;;;;;17.64;51.03;101270.94;5069417;28;45274;-50
2022/05/12 05:12:39;;;;;;;;;5.50;2.50;;;;;17.77;51.44;101301.16;5037533;28;45343;-50
2022/05/12 05:15:06;;;;;;;;;3.00;3.00;;;;;17.73;51.43;101303.59;5036552;28;46387;-52
2022/05/12 05:17:31;;;;;;;;;3.20;2.80;;;;;17.52;51.35;101268.19;5037034;28;45458;-51
2022/05/12 05:19:57;;;;;;;;;2.00;2.00;;;;;17.57;51.60;101283.00;5037097;28;45471;-49
2022/05/12 05:22:22;;;;;;;;;2.50;2.50;;;;;17.72;51.61;101307.47;5037158;28;45445;-48
2022/05/12 05:24:48;;;;;;;;;4.00;1.25;;;;;17.72;51.54;101314.97;5036789;28;46067;-54
2022/05/12 05:27:13;;;;;;;;;2.50;2.50;;;;;17.74;51.37;101313.63;5036356;28;45377;-54
2022/05/12 05:29:41;;;;;;;;;3.00;3.00;;;;;17.69;51.36;101319.09;5013907;28;45431;-49
2022/05/12 05:32:10;;;;;;;;;2.60;2.00;;;;;17.73;51.34;101331.34;5031893;28;45312;-55
2022/05/12 05:34:35;;;;;;;;;3.20;2.20;;;;;17.73;51.39;101339.69;5035651;28;46671;-50
2022/05/12 05:37:01;;;;;;;;;4.00;4.00;;;;;17.68;51.48;101334.06;5036409;28;45327;-53
2022/05/12 05:39:27;;;;;;;;;3.00;2.00;;;;;17.70;51.46;101342.09;5036640;28;45298;-50
2022/05/12 05:41:57;;;;;;;;;2.80;1.80;;;;;17.65;51.37;101339.25;5037017;28;45360;-53
2022/05/12 05:44:22;;;;;;;;;4.00;3.00;;;;;17.71;51.56;101346.56;5034924;28;46148;-52
2022/05/12 05:46:47;;;;;;;;;2.75;2.00;;;;;17.74;51.57;101346.09;5036739;28;45293;-51
2022/05/12 05:49:14;;;;;;;;;3.50;2.75;;;;;17.73;51.34;101349.97;5036485;28;45304;-49
2022/05/12 05:54:25;;;;;;;;;4.80;4.00;;;;;17.25;52.13;101322.31;5036220;28;45441;-55
2022/05/12 05:56:50;;;;;;;;;2.50;2.50;;;;;17.55;51.88;101364.84;5035087;28;45429;-51
2022/05/12 05:59:16;;;;;;;;;2.50;2.50;;;;;17.38;51.48;101323.97;5036414;28;45461;-52
2022/05/12 06:01:41;;;;;;;;;3.00;3.00;;;;;17.67;51.55;101371.19;5036568;28;45498;-49
2022/05/12 06:04:07;;;;;;;;;4.00;4.00;;;;;17.71;51.56;101377.09;5036541;28;45495;-54
2022/05/12 06:06:32;;;;;;;;;3.75;3.00;;;;;17.67;51.31;101382.31;5036026;28;45781;-50
2022/05/12 06:08:58;;;;;;;;;6.75;4.00;;;;;17.71;51.21;101394.63;5035439;28;45367;-52
2022/05/12 06:11:23;;;;;;;;;3.00;3.00;;;;;17.73;51.26;101394.38;5036514;28;45395;-52
2022/05/12 06:13:49;;;;;;;;;2.50;2.00;;;;;17.59;51.47;101388.25;5034493;28;47028;-48
2022/05/12 06:16:14;;;;;;;;;4.00;3.75;;;;;17.65;51.66;101403.09;5018602;28;45824;-51
2022/05/12 06:18:41;;;;;;;;;4.50;4.50;;;;;17.68;51.53;101399.81;5036331;28;45398;-52
2022/05/12 06:21:09;;;;;;;;;3.40;2.00;;;;;17.70;51.14;101404.03;5036470;28;45299;-54
2022/05/12 06:23:35;;;;;;;;;4.60;2.80;;;;;17.68;50.86;101405.38;5035918;28;45874;-54
2022/05/12 06:26:00;;;;;;;;;4.25;3.00;;;;;17.71;51.22;101407.63;5036300;28;45514;-55
2022/05/12 06:28:26;;;;;;;;;5.50;4.25;;;;;17.62;51.22;101407.19;5036629;28;45985;-49
2022/05/12 06:30:51;;;;;;;;;3.50;3.00;;;;;17.65;51.37;101400.31;5036054;28;45420;-49
2022/05/12 06:33:17;;;;;;;;;3.00;3.00;;;;;17.41;51.64;101405.88;5036114;28;45555;-52
2022/05/12 06:35:43;;;;;;;;;4.80;2.20;;;;;17.42;52.08;101411.19;5051274;28;45440;-53
2022/05/12 06:38:10;;;;;;;;;5.75;4.50;;;;;17.18;52.23;101407.56;5036431;28;45393;-52
2022/05/12 06:40:36;;;;;;;;;4.00;4.00;;;;;17.07;52.81;101414.78;5034689;28;45655;-54
2022/05/12 06:43:05;;;;;;;;;4.00;4.00;;;;;17.06;52.72;101402.00;5035587;28;46926;-49
2022/05/12 06:45:31;;;;;;;;;4.20;3.20;;;;;17.30;51.98;101421.44;5035465;28;45513;-56
2022/05/12 06:47:56;;;;;;;;;3.00;3.00;;;;;17.41;51.50;101417.84;5035734;28;45431;-49
2022/05/12 06:50:24;;;;;;;;;5.25;2.75;;;;;17.42;51.57;101415.88;4990149;28;45534;-50
2022/05/12 06:52:50;;;;;;;;;3.00;3.00;;;;;17.54;51.15;101424.19;5030417;28;47333;-49
2022/05/12 06:55:15;;;;;;;;;3.75;3.75;;;;;17.58;51.03;101422.63;5015710;28;45296;-53
2022/05/12 06:57:42;;;;;;;;;4.75;2.75;;;;;17.42;50.72;101380.66;5015557;28;45200;-53
2022/05/12 07:00:08;;;;;;;;;4.00;4.00;;;;;17.72;49.80;101414.91;5031531;28;45226;-54
2022/05/12 07:02:35;;;;;;;;;6.80;3.80;;;;;17.53;50.02;101397.53;5033902;28;45944;-52
2022/05/12 07:05:01;;;;;;;;;5.40;4.00;;;;;17.74;49.58;101415.50;5033871;28;45541;-51
2022/05/12 07:07:27;;;;;;;;;4.00;2.75;;;;;17.80;49.57;101419.22;5051335;28;45369;-50
2022/05/12 07:09:54;;;;;;;;;2.40;2.40;;;;;17.83;49.24;101427.06;5035198;27;45401;-50
2022/05/12 07:12:20;;;;;;;;;3.60;3.60;;;;;17.53;48.71;101392.84;5035102;28;46016;-50
2022/05/12 07:14:46;;;;;;;;;4.60;3.00;;;;;17.39;49.44;101411.66;5050934;28;45349;-52
2022/05/12 07:17:11;;;;;;;;;5.75;3.25;;;;;17.42;49.04;101425.06;5035067;28;45226;-50
2022/05/12 07:19:37;;;;;;;;;4.00;2.00;;;;;17.26;49.70;101403.56;5034412;28;45416;-49
2022/05/12 07:27:38;;;;;;;;;3.00;3.00;;;;;17.80;48.83;101413.66;5036688;28;45327;-51
2022/05/12 07:30:05;;;;;;;;;3.25;2.00;;;;;17.71;48.53;101388.22;5036847;28;45659;-52
2022/05/12 07:32:30;;;;;;;;;2.80;2.80;;;;;17.92;48.10;101414.47;5037928;28;45264;-51
2022/05/12 07:34:56;;;;;;;;;7.60;2.60;;;;;17.98;47.57;101419.06;5038568;28;45173;-50
2022/05/12 07:37:22;;;;;;;;;3.25;3.00;;;;;18.00;48.00;101416.88;5037774;28;45195;-50
2022/05/12 07:39:48;;;;;;;;;7.25;4.75;;;;;17.92;47.43;101413.66;5038843;28;45372;-52
2022/05/12 07:42:13;;;;;;;;;5.50;3.00;;;;;18.03;47.27;101409.97;5038077;28;45427;-54
2022/05/12 07:44:40;;;;;;;;;3.75;3.75;;;;;18.07;47.26;101415.91;5038652;28;45362;-54
2022/05/12 07:47:10;;;;;;;;;5.00;4.00;;;;;17.81;46.95;101379.25;5036891;28;45500;-50
2022/05/12 07:49:36;;;;;;;;;6.20;3.40;;;;;18.01;46.97;101415.81;5020545;28;45386;-48
2022/05/12 07:52:03;;;;;;;;;6.75;3.75;;;;;18.12;47.39;101413.25;5037822;28;47514;-48
2022/05/12 07:54:29;;;;;;;;;2.00;2.00;;;;;18.28;46.59;101414.41;5037028;28;45407;-51
2022/05/12 07:56:54;;;;;;;;;0.00;0.00;;;;;18.37;45.98;101423.19;5038433;28;45881;-53
2022/05/12 07:59:21;;;;;;;;;3.75;3.00;;;;;18.47;45.84;101428.94;5038368;28;45477;-52
2022/05/12 08:01:47;;;;;;;;;4.60;3.00;;;;;18.52;45.59;101425.44;5037384;28;46001;-50
2022/05/12 08:04:13;;;;;;;;;3.00;3.00;;;;;18.58;44.96;101426.34;5036475;28;45549;-51
2022/05/12 08:06:39;;;;;;;;;3.50;3.50;;;;;18.58;45.38;101423.59;5055080;27;45415;-49
2022/05/12 08:09:05;;;;;;;;;4.20;2.20;;;;;18.60;45.07;101430.56;5017700;28;45250;-49
2022/05/12 08:11:31;;;;;;;;;6.75;2.50;;;;;18.59;45.24;101431.69;5018084;28;46702;-50
2022/05/12 08:13:57;;;;;;;;;6.00;2.20;;;;;18.45;44.98;101430.31;5018166;28;45370;-52
2022/05/12 08:16:23;;;;;;;;;4.00;2.00;;;;;18.46;45.05;101427.25;5018070;28;45366;-52
2022/05/12 08:18:49;;;;;;;;;3.00;3.00;;;;;18.55;44.66;101430.47;5017566;28;45536;-49
2022/05/12 08:21:16;;;;;;;;;3.00;2.00;;;;;18.43;44.12;101411.09;5014832;28;45902;-52
2022/05/12 08:23:41;;;;;;;;;4.80;3.00;;;;;18.60;44.48;101440.84;5009893;27;45627;-52
2022/05/12 08:26:07;;;;;;;;;3.25;1.50;;;;;18.62;44.92;101442.28;5011091;28;45794;-53
2022/05/12 08:28:33;;;;;;;;;3.50;2.50;;;;;18.46;44.76;101404.19;5030340;28;45596;-50
2022/05/12 08:30:58;;;;;;;;;2.75;2.50;;;;;18.70;44.54;101447.44;5031218;28;45818;-51
2022/05/12 08:33:24;;;;;;;;;3.00;1.75;;;;;18.57;43.80;101439.41;5033231;28;45635;-51
2022/05/12 08:35:50;;;;;;;;;3.25;2.00;;;;;18.51;44.30;101438.47;5031757;28;45712;-52
2022/05/12 08:38:16;;;;;;;;;1.50;1.00;;;;;18.66;43.86;101440.69;5032951;28;45708;-52
2022/05/12 08:40:50;;;;;;;;;2.80;2.80;;;;;18.56;43.71;101424.69;5032342;28;45893;-47
2022/05/12 08:43:18;;;;;;;;;5.00;3.60;;;;;18.59;44.27;101441.94;5033747;28;45393;-54
2022/05/12 08:45:43;;;;;;;;;6.60;6.00;;;;;18.75;44.23;101446.72;5033314;28;45333;-55
2022/05/12 08:48:09;;;;;;;;;3.50;1.00;;;;;18.88;43.71;101436.38;5032515;28;45696;-54
2022/05/12 08:50:36;;;;;;;;;4.50;3.50;;;;;18.95;43.85;101432.31;5031955;28;45781;-55
2022/05/12 08:53:05;;;;;;;;;4.20;1.00;;;;;19.09;43.36;101432.00;5013776;28;45749;-52
2022/05/12 08:55:31;;;;;;;;;6.00;3.00;;;;;19.21;43.13;101435.53;5032994;28;45858;-52
2022/05/12 08:58:07;;;;;;;;;3.20;2.20;;;;;19.36;43.66;101431.31;5065944;28;45392;-54
2022/05/12 09:01:17;;;;;;;;;2.20;2.00;;;;;19.51;43.10;101436.28;5032500;28;45577;-56
2022/05/12 09:03:58;;;;;;;;;2.00;2.00;;;;;19.41;42.59;101391.59;5032808;28;45441;-55
2022/05/12 09:06:46;;;;;;;;;2.00;2.00;;;;;19.61;42.26;101403.03;5031753;28;45805;-56
2022/05/12 09:09:17;;;;;;;;;2.00;2.00;;;;;19.91;41.95;101423.19;5055768;28;45855;-51
2022/05/12 09:12:01;;;;;;;;;3.00;3.00;;;;;19.91;41.79;101415.66;5031024;28;47991;-50
2022/05/12 09:14:32;;;;;;;;;3.00;1.00;;;;;20.01;41.55;101419.72;5061731;28;45424;-51
2022/05/12 09:16:58;;;;;;;;;1.20;1.20;;;;;20.12;41.61;101417.91;5031185;28;45366;-53
2022/05/12 09:19:25;;;;;;;;;6.00;2.00;;;;;20.28;41.61;101419.75;5031233;28;45689;-50
2022/05/12 09:21:51;;;;;;;;;3.40;2.00;;;;;20.43;41.15;101427.44;5021298;27;47929;-51
2022/05/12 09:24:16;;;;;;;;;2.75;1.75;;;;;20.45;40.81;101425.22;5033510;28;45740;-52
2022/05/12 09:26:46;;;;;;;;;1.25;1.25;;;;;20.32;40.67;101411.72;5034911;28;45394;-50
2022/05/12 09:29:30;;;;;;;;;1.80;1.80;;;;;20.41;41.09;101429.66;5034568;28;45524;-50
2022/05/12 09:32:03;;;;;;;;;2.20;2.20;;;;;20.17;41.01;101429.13;5034651;28;47386;-47
2022/05/12 09:34:39;;;;;;;;;3.00;2.00;;;;;20.12;41.22;101415.94;5035400;28;45416;-47
2022/05/12 09:37:15;;;;;;;;;3.20;1.80;;;;;20.15;41.19;101418.22;5036664;28;45425;-52
2022/05/12 09:39:43;;;;;;;;;2.80;2.80;;;;;20.18;41.14;101423.25;5037089;28;45395;-54
2022/05/12 09:42:15;;;;;;;;;2.20;2.20;;;;;20.11;41.35;101397.53;5034822;28;46254;-48
2022/05/12 09:44:41;;;;;;;;;3.40;2.20;;;;;20.34;41.00;101429.03;5035242;28;45642;-51
2022/05/12 09:47:12;;;;;;;;;3.80;1.80;;;;;20.04;40.66;101360.69;5017804;28;45644;-48
2022/05/12 09:49:39;;;;;;;;;3.40;1.60;;;;;20.45;40.61;101411.28;5036859;28;45409;-51
2022/05/12 09:52:18;;;;;;;;;4.60;3.40;;;;;20.41;40.46;101407.38;5036308;28;46268;-48
2022/05/12 09:54:44;;;;;;;;;2.60;1.40;;;;;20.49;40.72;101417.19;5036522;28;45392;-50
2022/05/12 09:57:12;;;;;;;;;3.60;2.80;;;;;20.32;40.57;101394.97;5036205;28;45513;-50
2022/05/12 09:59:38;;;;;;;;;1.80;1.80;;;;;20.21;40.90;101387.63;5036823;28;45188;-51
2022/05/12 10:08:16;;;;;;;;;6.20;3.40;;;;;20.61;40.96;101410.63;5036400;28;45366;-49
2022/05/12 10:10:42;;;;;;;;;2.80;1.60;;;;;20.63;40.88;101402.81;5036533;28;45482;-47
2022/05/12 10:13:23;;;;;;;;;4.00;4.00;;;;;20.41;40.91;101404.59;5034808;28;46029;-50
2022/05/12 10:15:49;;;;;;;;;3.00;3.00;;;;;20.41;41.50;101381.41;5019102;28;45965;-52
2022/05/12 10:18:30;;;;;;;;;3.50;3.50;;;;;20.68;40.69;101414.88;5036245;28;45335;-47
2022/05/12 10:20:57;;;;;;;;;5.60;3.40;;;;;20.75;40.78;101386.75;5035675;28;45201;-50
2022/05/12 10:23:58;;;;;;;;;3.40;3.40;;;;;20.82;40.76;101375.41;5005386;28;46664;-50
2022/05/12 10:26:37;;;;;;;;;3.00;1.60;;;;;21.19;40.47;101391.31;5003067;28;45643;-46
2022/05/12 10:29:45;;;;;;;;;6.00;4.00;;;;;21.11;39.90;101386.25;5065707;28;45402;-51
2022/05/12 10:32:34;;;;;;;;;2.20;2.20;;;;;21.13;40.55;101393.25;5036401;28;45601;-49
2022/05/12 10:35:06;;;;;;;;;2.00;2.00;;;;;20.92;39.35;101388.63;5035943;28;46817;-49
2022/05/12 10:37:53;;;;;;;;;1.00;1.00;;;;;20.95;40.18;101400.09;5035951;28;45472;-51
2022/05/12 10:41:07;;;;;;;;;2.80;2.80;;;;;20.91;40.26;101395.31;5034685;28;45514;-47
2022/05/12 10:43:42;;;;;;;;;2.20;2.20;;;;;21.11;40.12;101397.41;5030893;28;45408;-47
2022/05/12 10:46:35;;;;;;;;;2.80;1.40;;;;;21.05;39.24;101360.25;5034425;28;46823;-48
2022/05/12 10:49:18;;;;;;;;;2.00;2.00;;;;;21.38;39.33;101379.72;5035917;28;45695;-52
2022/05/12 10:51:59;;;;;;;;;1.00;1.00;;;;;21.39;39.08;101359.06;5035954;28;45306;-48
2022/05/12 10:54:48;;;;;;;;;1.40;1.40;;;;;21.60;38.79;101378.75;5035889;28;45237;-48
2022/05/12 10:57:32;;;;;;;;;3.80;2.40;;;;;21.42;39.12;101366.91;5020541;28;45856;-53
2022/05/12 11:00:18;;;;;;;;;2.80;1.60;;;;;21.56;39.15;101378.41;5035684;28;45338;-54
2022/05/12 11:02:47;;;;;;;;;2.60;2.60;;;;;21.42;38.81;101352.09;5036018;28;45364;-54
2022/05/12 11:05:15;;;;;;;;;2.80;1.80;;;;;21.49;38.65;101377.81;5034806;28;45394;-56
2022/05/12 11:07:45;;;;;;;;;3.60;1.80;;;;;21.24;38.97;101352.28;5035410;28;46353;-52
2022/05/12 11:10:36;;;;;;;;;3.20;2.00;;;;;21.44;38.94;101372.22;5017435;28;45459;-51
2022/05/12 11:13:04;;;;;;;;;3.00;3.00;;;;;21.65;38.74;101382.41;5034738;28;45792;-51
2022/05/12 11:15:55;;;;;;;;;1.80;1.00;;;;;21.84;38.44;101373.56;5018119;28;45370;-51
2022/05/12 11:18:25;;;;;;;;;2.00;2.00;;;;;22.10;38.02;101382.06;5031584;28;45601;-52
2022/05/12 11:21:03;;;;;;;;;2.20;2.20;;;;;21.93;37.14;101388.69;5034367;28;45280;-51
2022/05/12 11:23:41;;;;;;;;;2.00;2.00;;;;;21.62;37.83;101384.88;5024505;28;45327;-48
2022/05/12 11:26:25;;;;;;;;;1.00;1.00;;;;;21.84;38.25;101383.91;5031632;28;45821;-48
2022/05/12 11:32:15;;;;;;;;;2.60;2.60;;;;;21.96;37.72;101387.31;5034029;28;45231;-55
2022/05/12 11:34:42;;;;;;;;;3.40;3.40;;;;;21.91;37.94;101373.31;5031306;28;45913;-53
2022/05/12 11:37:30;;;;;;;;;1.80;0.60;;;;;21.93;38.12;101385.06;5034344;28;45707;-54
2022/05/12 11:39:57;;;;;;;;;2.20;2.20;;;;;21.94;38.03;101376.38;5005444;28;47397;-49
2022/05/12 11:45:48;;;;;;;;;1.00;1.00;;;;;22.00;38.44;101377.28;5032853;28;45386;-50
2022/05/12 11:48:19;;;;;;;;;3.00;2.00;;;;;22.02;38.00;101382.56;5033069;28;45595;-48
2022/05/12 11:51:03;;;;;;;;;0.40;0.40;;;;;21.83;38.45;101357.94;5034081;28;45986;-53
2022/05/12 11:53:56;;;;;;;;;1.60;1.00;;;;;21.94;38.38;101386.75;5033851;28;45314;-51